createdAt,value
2023-04-29T00:00:05.331Z,18.10
2023-04-29T00:01:05.301Z,18.07
2023-04-29T00:02:05.414Z,18.05
2023-04-29T00:03:05.438Z,18.07
2023-04-29T00:04:06.201Z,18.11
2023-04-29T00:05:05.681Z,18.15
2023-04-29T00:06:06.100Z,18.18
2023-04-29T00:07:05.280Z,18.20
2023-04-29T00:08:06.194Z,18.23
2023-04-29T00:09:06.866Z,18.27
2023-04-29T00:10:05.236Z,18.30
2023-04-29T00:11:05.252Z,18.30
2023-04-29T00:12:05.197Z,18.30
2023-04-29T00:13:05.174Z,18.33
2023-04-29T00:14:05.174Z,18.36
2023-04-29T00:15:07.788Z,18.41
2023-04-29T00:16:05.171Z,18.39
2023-04-29T00:17:05.199Z,18.41
2023-04-29T00:18:07.681Z,18.41
2023-04-29T00:19:05.084Z,18.44
2023-04-29T00:20:05.124Z,18.47
2023-04-29T00:21:05.703Z,18.47
2023-04-29T00:22:05.103Z,18.50
2023-04-29T00:23:05.090Z,18.48
2023-04-29T00:24:05.045Z,18.47
2023-04-29T00:25:05.668Z,18.47
2023-04-29T00:26:05.742Z,18.45
2023-04-29T00:27:05.000Z,18.47
2023-04-29T00:28:05.054Z,18.47
2023-04-29T00:29:05.872Z,18.50
2023-04-29T00:30:05.002Z,18.48
2023-04-29T00:31:05.708Z,18.50
2023-04-29T00:32:04.975Z,18.51
2023-04-29T00:33:04.971Z,18.54
2023-04-29T00:34:04.954Z,18.51
2023-04-29T00:35:04.995Z,18.50
2023-04-29T00:36:04.947Z,18.51
2023-04-29T00:37:04.906Z,18.50
2023-04-29T00:38:04.901Z,18.51
2023-04-29T00:39:04.872Z,18.50
2023-04-29T00:40:04.876Z,18.58
2023-04-29T00:41:04.899Z,18.67
2023-04-29T00:42:04.866Z,18.80
2023-04-29T00:43:04.830Z,18.81
2023-04-29T00:44:04.854Z,18.85
2023-04-29T00:45:06.985Z,18.80
2023-04-29T00:46:04.881Z,18.82
2023-04-29T00:47:04.798Z,18.82
2023-04-29T00:48:04.837Z,18.82
2023-04-29T00:49:04.754Z,18.84
2023-04-29T00:50:04.812Z,18.80
2023-04-29T00:51:04.737Z,18.70
2023-04-29T00:52:04.753Z,18.67
2023-04-29T00:53:05.212Z,18.63
2023-04-29T00:54:04.738Z,18.55
2023-04-29T00:55:05.009Z,18.52
2023-04-29T00:56:05.687Z,18.50
2023-04-29T00:57:04.677Z,18.48
2023-04-29T00:58:04.691Z,18.51
2023-04-29T00:59:04.694Z,18.54
2023-04-29T01:00:04.682Z,18.60
2023-04-29T01:01:04.690Z,18.57
2023-04-29T01:02:04.630Z,18.57
2023-04-29T01:03:04.699Z,18.62
2023-04-29T01:04:04.812Z,18.62
2023-04-29T01:05:04.603Z,18.63
2023-04-29T01:06:04.601Z,18.65
2023-04-29T01:07:04.557Z,18.67
2023-04-29T01:08:04.555Z,18.60
2023-04-29T01:09:04.548Z,18.54
2023-04-29T01:10:04.648Z,18.51
2023-04-29T01:11:04.557Z,18.47
2023-04-29T01:12:04.541Z,18.44
2023-04-29T01:13:04.488Z,18.41
2023-04-29T01:14:04.503Z,18.36
2023-04-29T01:15:04.496Z,18.42
2023-04-29T01:16:04.652Z,18.48
2023-04-29T01:17:04.468Z,18.47
2023-04-29T01:18:04.481Z,18.39
2023-04-29T01:19:04.423Z,18.45
2023-04-29T01:20:04.430Z,18.52
2023-04-29T01:21:04.407Z,18.54
2023-04-29T01:22:04.425Z,18.52
2023-04-29T01:23:04.424Z,18.54
2023-04-29T01:24:04.373Z,18.58
2023-04-29T01:25:04.365Z,18.62
2023-04-29T01:26:04.382Z,18.62
2023-04-29T01:27:04.356Z,18.60
2023-04-29T01:28:04.355Z,18.60
2023-04-29T01:29:04.328Z,18.58
2023-04-29T01:30:04.313Z,18.51
2023-04-29T01:31:04.397Z,18.47
2023-04-29T01:32:04.315Z,18.39
2023-04-29T01:33:04.332Z,18.37
2023-04-29T01:34:04.293Z,18.37
2023-04-29T01:35:04.507Z,18.36
2023-04-29T01:36:04.232Z,18.30
2023-04-29T01:37:04.247Z,18.32
2023-04-29T01:38:04.271Z,18.33
2023-04-29T01:39:07.263Z,18.26
2023-04-29T01:40:04.207Z,18.26
2023-04-29T01:41:04.953Z,18.26
2023-04-29T01:42:04.184Z,18.29
2023-04-29T01:43:06.381Z,18.30
2023-04-29T01:44:05.477Z,18.30
2023-04-29T01:45:04.131Z,18.33
2023-04-29T01:46:05.186Z,18.36
2023-04-29T01:47:05.541Z,18.42
2023-04-29T01:48:04.186Z,18.47
2023-04-29T01:49:05.818Z,18.48
2023-04-29T01:50:04.112Z,18.57
2023-04-29T01:51:04.106Z,18.58
2023-04-29T01:52:04.079Z,18.55
2023-04-29T01:53:04.075Z,18.52
2023-04-29T01:54:04.086Z,18.52
2023-04-29T01:55:04.006Z,18.51
2023-04-29T01:56:04.049Z,18.45
2023-04-29T01:57:03.990Z,18.44
2023-04-29T01:58:04.011Z,18.42
2023-04-29T01:59:03.986Z,18.44
2023-04-29T02:00:04.142Z,18.44
2023-04-29T02:01:05.031Z,18.42
2023-04-29T02:02:03.979Z,18.41
2023-04-29T02:03:04.100Z,18.32
2023-04-29T02:04:03.993Z,18.32
2023-04-29T02:05:03.906Z,18.33
2023-04-29T02:06:03.909Z,18.32
2023-04-29T02:07:04.815Z,18.32
2023-04-29T02:08:04.267Z,18.30
2023-04-29T02:09:03.867Z,18.30
2023-04-29T02:10:04.750Z,18.30
2023-04-29T02:11:03.875Z,18.30
2023-04-29T02:12:03.851Z,18.29
2023-04-29T02:13:03.912Z,18.26
2023-04-29T02:14:08.429Z,18.25
2023-04-29T02:15:03.790Z,18.23
2023-04-29T02:16:03.832Z,18.23
2023-04-29T02:17:03.771Z,18.23
2023-04-29T02:18:04.011Z,18.23
2023-04-29T02:19:03.749Z,18.21
2023-04-29T02:20:09.371Z,18.23
2023-04-29T02:21:03.736Z,18.26
2023-04-29T02:22:03.752Z,18.29
2023-04-29T02:23:04.380Z,18.32
2023-04-29T02:24:03.715Z,18.33
2023-04-29T02:25:03.680Z,18.32
2023-04-29T02:26:03.733Z,18.32
2023-04-29T02:27:04.288Z,18.27
2023-04-29T02:28:03.671Z,18.27
2023-04-29T02:29:03.728Z,18.29
2023-04-29T02:30:03.812Z,18.30
2023-04-29T02:31:03.791Z,18.32
2023-04-29T02:32:03.644Z,18.30
2023-04-29T02:33:04.447Z,18.30
2023-04-29T02:34:04.228Z,18.33
2023-04-29T02:35:03.598Z,18.35
2023-04-29T02:36:04.403Z,18.36
2023-04-29T02:37:04.866Z,18.37
2023-04-29T02:38:03.569Z,18.39
2023-04-29T02:39:04.215Z,18.36
2023-04-29T02:40:04.238Z,18.36
2023-04-29T02:41:03.549Z,18.36
2023-04-29T02:42:03.513Z,18.37
2023-04-29T02:43:03.482Z,18.33
2023-04-29T02:44:03.479Z,18.27
2023-04-29T02:45:04.219Z,18.26
2023-04-29T02:46:04.255Z,18.25
2023-04-29T02:47:03.644Z,18.26
2023-04-29T02:48:03.504Z,18.26
2023-04-29T02:49:04.211Z,18.26
2023-04-29T02:50:04.332Z,18.26
2023-04-29T02:51:03.391Z,18.21
2023-04-29T02:52:05.807Z,18.21
2023-04-29T02:53:04.072Z,18.18
2023-04-29T02:54:03.442Z,18.17
2023-04-29T02:55:03.325Z,18.20
2023-04-29T02:56:03.355Z,18.18
2023-04-29T02:57:03.314Z,18.15
2023-04-29T02:58:03.326Z,18.10
2023-04-29T02:59:03.322Z,18.11
2023-04-29T03:00:03.352Z,18.12
2023-04-29T03:01:03.317Z,18.14
2023-04-29T03:02:03.968Z,18.20
2023-04-29T03:03:03.434Z,18.20
2023-04-29T03:04:04.305Z,18.20
2023-04-29T03:05:03.251Z,18.20
2023-04-29T03:06:03.256Z,18.20
2023-04-29T03:07:03.721Z,18.20
2023-04-29T03:08:03.223Z,18.18
2023-04-29T03:09:03.190Z,18.20
2023-04-29T03:10:03.211Z,18.20
2023-04-29T03:11:03.173Z,18.21
2023-04-29T03:12:03.195Z,18.23
2023-04-29T03:13:03.140Z,18.25
2023-04-29T03:14:03.158Z,18.26
2023-04-29T03:15:03.219Z,18.27
2023-04-29T03:16:03.139Z,18.30
2023-04-29T03:17:03.247Z,18.30
2023-04-29T03:18:03.185Z,18.25
2023-04-29T03:19:03.106Z,18.18
2023-04-29T03:20:03.155Z,18.18
2023-04-29T03:21:03.044Z,18.15
2023-04-29T03:22:03.055Z,18.15
2023-04-29T03:23:03.021Z,18.17
2023-04-29T03:24:03.063Z,18.11
2023-04-29T03:25:03.720Z,18.10
2023-04-29T03:26:03.054Z,18.11
2023-04-29T03:27:03.010Z,18.00
2023-04-29T03:28:03.016Z,17.99
2023-04-29T03:29:02.994Z,18.00
2023-04-29T03:30:02.974Z,18.03
2023-04-29T03:31:02.968Z,18.02
2023-04-29T03:32:02.963Z,18.02
2023-04-29T03:33:02.931Z,17.96
2023-04-29T03:34:02.944Z,17.92
2023-04-29T03:35:02.887Z,17.95
2023-04-29T03:36:02.920Z,17.99
2023-04-29T03:37:03.733Z,17.99
2023-04-29T03:38:02.890Z,17.95
2023-04-29T03:39:02.839Z,17.90
2023-04-29T03:40:02.878Z,17.87
2023-04-29T03:41:02.833Z,17.84
2023-04-29T03:42:02.890Z,17.82
2023-04-29T03:43:02.805Z,17.87
2023-04-29T03:44:02.837Z,17.92
2023-04-29T03:45:02.795Z,17.92
2023-04-29T03:46:03.504Z,17.89
2023-04-29T03:47:02.795Z,17.96
2023-04-29T03:48:03.584Z,17.97
2023-04-29T03:49:02.748Z,17.96
2023-04-29T03:50:02.724Z,17.90
2023-04-29T03:51:02.759Z,17.86
2023-04-29T03:52:02.707Z,17.82
2023-04-29T03:53:03.238Z,17.81
2023-04-29T03:54:02.671Z,17.81
2023-04-29T03:55:02.704Z,17.72
2023-04-29T03:56:02.640Z,17.72
2023-04-29T03:57:02.695Z,17.72
2023-04-29T03:58:02.641Z,17.72
2023-04-29T03:59:02.664Z,17.72
2023-04-29T04:00:02.594Z,17.71
2023-04-29T04:01:02.618Z,17.64
2023-04-29T04:02:02.650Z,17.64
2023-04-29T04:03:05.252Z,17.68
2023-04-29T04:04:02.714Z,17.66
2023-04-29T04:05:02.616Z,17.71
2023-04-29T04:06:02.521Z,17.72
2023-04-29T04:07:02.559Z,17.72
2023-04-29T04:08:02.552Z,17.74
2023-04-29T04:09:02.513Z,17.79
2023-04-29T04:10:02.498Z,17.78
2023-04-29T04:11:03.274Z,17.72
2023-04-29T04:12:02.476Z,17.70
2023-04-29T04:13:02.477Z,17.71
2023-04-29T04:14:02.458Z,17.68
2023-04-29T04:15:02.471Z,17.68
2023-04-29T04:16:02.463Z,17.72
2023-04-29T04:17:02.461Z,17.79
2023-04-29T04:18:02.434Z,17.79
2023-04-29T04:19:02.423Z,17.82
2023-04-29T04:20:02.386Z,17.82
2023-04-29T04:21:02.413Z,17.86
2023-04-29T04:22:02.352Z,17.87
2023-04-29T04:23:02.389Z,17.86
2023-04-29T04:24:02.326Z,17.90
2023-04-29T04:25:02.347Z,17.89
2023-04-29T04:26:02.342Z,17.90
2023-04-29T04:27:03.197Z,17.90
2023-04-29T04:28:03.293Z,17.89
2023-04-29T04:29:02.345Z,17.90
2023-04-29T04:30:02.284Z,17.92
2023-04-29T04:31:02.303Z,17.93
2023-04-29T04:32:03.327Z,17.92
2023-04-29T04:33:02.289Z,17.87
2023-04-29T04:34:02.238Z,17.89
2023-04-29T04:35:02.296Z,17.89
2023-04-29T04:36:02.224Z,17.89
2023-04-29T04:37:02.216Z,17.86
2023-04-29T04:38:04.021Z,17.82
2023-04-29T04:39:02.210Z,17.89
2023-04-29T04:40:02.239Z,17.93
2023-04-29T04:41:02.868Z,17.92
2023-04-29T04:42:02.152Z,17.92
2023-04-29T04:43:02.147Z,17.87
2023-04-29T04:44:02.827Z,17.82
2023-04-29T04:45:02.168Z,17.84
2023-04-29T04:46:02.201Z,17.86
2023-04-29T04:47:02.881Z,17.86
2023-04-29T04:48:02.148Z,17.86
2023-04-29T04:49:02.780Z,17.87
2023-04-29T04:50:03.805Z,17.89
2023-04-29T04:51:02.057Z,17.86
2023-04-29T04:52:02.032Z,17.84
2023-04-29T04:53:02.047Z,17.87
2023-04-29T04:54:02.015Z,17.89
2023-04-29T04:55:02.772Z,17.92
2023-04-29T04:56:02.012Z,17.93
2023-04-29T04:57:02.033Z,17.96
2023-04-29T04:58:01.949Z,17.92
2023-04-29T04:59:01.984Z,17.90
2023-04-29T05:00:02.745Z,17.87
2023-04-29T05:01:02.016Z,17.82
2023-04-29T05:02:02.491Z,17.82
2023-04-29T05:03:02.163Z,17.82
2023-04-29T05:04:02.051Z,17.82
2023-04-29T05:05:01.934Z,17.75
2023-04-29T05:06:02.761Z,17.71
2023-04-29T05:07:01.890Z,17.70
2023-04-29T05:08:01.855Z,17.66
2023-04-29T05:09:01.878Z,17.66
2023-04-29T05:10:01.826Z,17.68
2023-04-29T05:11:01.899Z,17.68
2023-04-29T05:12:01.801Z,17.63
2023-04-29T05:13:01.799Z,17.66
2023-04-29T05:14:01.780Z,17.64
2023-04-29T05:15:01.793Z,17.63
2023-04-29T05:16:01.738Z,17.62
2023-04-29T05:17:01.836Z,17.62
2023-04-29T05:18:01.765Z,17.66
2023-04-29T05:19:01.749Z,17.70
2023-04-29T05:20:01.703Z,17.71
2023-04-29T05:21:01.731Z,17.75
2023-04-29T05:22:02.470Z,17.77
2023-04-29T05:23:01.743Z,17.77
2023-04-29T05:24:01.673Z,17.77
2023-04-29T05:25:01.712Z,17.72
2023-04-29T05:26:01.676Z,17.71
2023-04-29T05:27:02.356Z,17.62
2023-04-29T05:28:02.245Z,17.66
2023-04-29T05:29:01.674Z,17.71
2023-04-29T05:30:01.611Z,17.72
2023-04-29T05:31:01.659Z,17.71
2023-04-29T05:32:01.571Z,17.70
2023-04-29T05:33:01.636Z,17.66
2023-04-29T05:34:01.572Z,17.63
2023-04-29T05:35:01.584Z,17.62
2023-04-29T05:36:01.532Z,17.56
2023-04-29T05:37:01.565Z,17.55
2023-04-29T05:38:01.513Z,17.59
2023-04-29T05:39:02.195Z,17.59
2023-04-29T05:40:01.495Z,17.59
2023-04-29T05:41:01.519Z,17.55
2023-04-29T05:42:01.481Z,17.55
2023-04-29T05:43:01.495Z,17.55
2023-04-29T05:44:01.472Z,17.54
2023-04-29T05:45:01.451Z,17.58
2023-04-29T05:46:01.454Z,17.56
2023-04-29T05:47:01.475Z,17.52
2023-04-29T05:48:01.480Z,17.43
2023-04-29T05:49:01.415Z,17.41
2023-04-29T05:50:01.389Z,17.46
2023-04-29T05:51:01.383Z,17.49
2023-04-29T05:52:01.357Z,17.54
2023-04-29T05:53:01.388Z,17.56
2023-04-29T05:54:02.756Z,17.55
2023-04-29T05:55:01.364Z,17.54
2023-04-29T05:56:01.297Z,17.58
2023-04-29T05:57:01.350Z,17.58
2023-04-29T05:58:01.300Z,17.59
2023-04-29T05:59:01.324Z,17.62
2023-04-29T06:00:01.269Z,17.63
2023-04-29T06:01:01.308Z,17.56
2023-04-29T06:02:01.253Z,17.56
2023-04-29T06:03:01.382Z,17.48
2023-04-29T06:04:01.408Z,17.49
2023-04-29T06:05:01.560Z,17.49
2023-04-29T06:06:01.330Z,17.51
2023-04-29T06:07:01.249Z,17.55
2023-04-29T06:08:01.198Z,17.55
2023-04-29T06:09:01.202Z,17.54
2023-04-29T06:10:01.206Z,17.44
2023-04-29T06:11:01.215Z,17.51
2023-04-29T06:12:01.131Z,17.55
2023-04-29T06:13:01.202Z,17.55
2023-04-29T06:14:01.137Z,17.59
2023-04-29T06:15:01.150Z,17.63
2023-04-29T06:16:01.135Z,17.62
2023-04-29T06:17:01.173Z,17.59
2023-04-29T06:18:01.096Z,17.54
2023-04-29T06:19:01.092Z,17.52
2023-04-29T06:20:03.676Z,17.51
2023-04-29T06:21:01.040Z,17.51
2023-04-29T06:22:01.040Z,17.51
2023-04-29T06:23:02.939Z,17.54
2023-04-29T06:24:01.729Z,17.56
2023-04-29T06:25:01.018Z,17.58
2023-04-29T06:26:00.973Z,17.58
2023-04-29T06:27:00.989Z,17.59
2023-04-29T06:28:01.574Z,17.59
2023-04-29T06:29:00.990Z,17.63
2023-04-29T06:30:00.945Z,17.63
2023-04-29T06:31:00.959Z,17.64
2023-04-29T06:32:01.009Z,17.66
2023-04-29T06:33:02.987Z,17.70
2023-04-29T06:34:00.880Z,17.63
2023-04-29T06:35:01.378Z,17.62
2023-04-29T06:36:00.859Z,17.59
2023-04-29T06:37:00.892Z,17.59
2023-04-29T06:38:00.825Z,17.66
2023-04-29T06:39:00.876Z,17.64
2023-04-29T06:40:01.782Z,17.62
2023-04-29T06:41:01.097Z,17.58
2023-04-29T06:42:00.795Z,17.58
2023-04-29T06:43:00.803Z,17.58
2023-04-29T06:44:00.765Z,17.62
2023-04-29T06:45:00.796Z,17.64
2023-04-29T06:46:00.750Z,17.66
2023-04-29T06:47:00.836Z,17.66
2023-04-29T06:48:00.786Z,17.66
2023-04-29T06:49:00.746Z,17.66
2023-04-29T06:50:00.746Z,17.64
2023-04-29T06:51:01.306Z,17.64
2023-04-29T06:52:00.679Z,17.70
2023-04-29T06:53:00.801Z,17.74
2023-04-29T06:54:00.670Z,17.75
2023-04-29T06:55:00.656Z,17.72
2023-04-29T06:56:00.625Z,17.72
2023-04-29T06:57:00.696Z,17.72
2023-04-29T06:58:01.342Z,17.72
2023-04-29T06:59:00.628Z,17.72
2023-04-29T07:00:00.577Z,17.77
2023-04-29T07:01:00.644Z,17.77
2023-04-29T07:02:00.573Z,17.79
2023-04-29T07:03:00.770Z,17.79
2023-04-29T07:04:00.739Z,17.82
2023-04-29T07:05:00.614Z,17.89
2023-04-29T07:06:00.502Z,17.86
2023-04-29T07:07:01.316Z,17.79
2023-04-29T07:08:00.570Z,17.79
2023-04-29T07:09:00.514Z,17.77
2023-04-29T07:10:00.505Z,17.78
2023-04-29T07:11:00.523Z,17.86
2023-04-29T07:12:00.448Z,17.86
2023-04-29T07:13:00.468Z,17.82
2023-04-29T07:14:00.433Z,17.84
2023-04-29T07:15:00.437Z,17.79
2023-04-29T07:16:00.419Z,17.79
2023-04-29T07:17:00.617Z,17.81
2023-04-29T07:18:00.484Z,17.84
2023-04-29T07:19:01.043Z,17.82
2023-04-29T07:20:00.355Z,17.77
2023-04-29T07:21:00.373Z,17.72
2023-04-29T08:14:15.301Z,17.75
2023-04-29T09:14:18.887Z,17.41
2023-04-29T09:15:19.643Z,17.46
2023-04-29T09:16:19.608Z,17.44
2023-04-29T09:17:19.615Z,17.41
2023-04-29T09:18:19.591Z,17.40
2023-04-29T09:19:19.603Z,17.44
2023-04-29T09:20:19.574Z,17.43
2023-04-29T09:21:22.053Z,17.41
2023-04-29T09:22:19.542Z,17.41
2023-04-29T09:23:19.528Z,17.46
2023-04-29T09:24:19.540Z,17.55
2023-04-29T09:25:19.539Z,17.58
2023-04-29T09:26:19.495Z,17.59
2023-04-29T09:27:19.484Z,17.63
2023-04-29T09:28:19.471Z,17.64
2023-04-29T09:29:20.197Z,17.68
2023-04-29T09:30:19.431Z,17.66
2023-04-29T09:31:19.463Z,17.64
2023-04-29T09:32:19.443Z,17.59
2023-04-29T09:33:19.439Z,17.63
2023-04-29T09:34:19.390Z,17.63
2023-04-29T09:35:19.417Z,17.66
2023-04-29T09:36:19.365Z,17.70
2023-04-29T09:37:20.084Z,17.71
2023-04-29T09:38:19.355Z,17.72
2023-04-29T09:39:19.358Z,17.77
2023-04-29T09:40:19.289Z,17.78
2023-04-29T09:41:32.468Z,17.77
2023-04-29T09:42:19.288Z,17.71
2023-04-29T09:43:19.311Z,17.72
2023-04-29T09:44:19.303Z,17.72
2023-04-29T09:45:19.267Z,17.72
2023-04-29T09:46:19.286Z,17.75
2023-04-29T09:47:19.269Z,17.78
2023-04-29T09:48:19.238Z,17.78
2023-04-29T09:49:19.259Z,17.75
2023-04-29T09:50:19.187Z,17.75
2023-04-29T09:51:19.196Z,17.79
2023-04-29T09:52:21.781Z,17.81
2023-04-29T09:53:21.934Z,17.79
2023-04-29T09:54:20.729Z,17.79
2023-04-29T09:55:20.012Z,17.82
2023-04-29T09:56:19.127Z,17.86
2023-04-29T09:57:19.210Z,17.87
2023-04-29T09:58:19.099Z,17.90
2023-04-29T09:59:19.117Z,17.90
2023-04-29T10:00:19.932Z,17.89
2023-04-29T10:01:19.141Z,17.87
2023-04-29T10:02:19.237Z,17.87
2023-04-29T10:03:19.161Z,17.89
2023-04-29T10:04:19.059Z,17.89
2023-04-29T10:05:19.801Z,17.90
2023-04-29T10:06:19.021Z,17.90
2023-04-29T10:07:19.120Z,17.92
2023-04-29T10:08:18.991Z,17.93
2023-04-29T10:09:19.001Z,17.96
2023-04-29T10:10:18.967Z,17.95
2023-04-29T10:11:18.985Z,17.97
2023-04-29T10:12:18.959Z,17.97
2023-04-29T10:13:19.666Z,17.99
2023-04-29T10:14:18.922Z,18.00
2023-04-29T10:15:18.939Z,18.00
2023-04-29T10:16:18.981Z,17.97
2023-04-29T10:17:19.528Z,18.00
2023-04-29T10:18:18.890Z,18.02
2023-04-29T10:19:19.780Z,18.07
2023-04-29T10:20:18.859Z,18.07
2023-04-29T10:21:18.870Z,18.07
2023-04-29T10:22:18.838Z,18.07
2023-04-29T10:23:18.846Z,18.08
2023-04-29T10:24:18.785Z,18.12
2023-04-29T10:25:19.295Z,18.20
2023-04-29T10:26:18.774Z,18.25
2023-04-29T10:27:18.816Z,18.21
2023-04-29T10:28:18.778Z,18.25
2023-04-29T10:29:18.773Z,18.25
2023-04-29T10:30:18.735Z,18.26
2023-04-29T10:31:18.773Z,18.25
2023-04-29T10:32:18.725Z,18.20
2023-04-29T10:33:18.811Z,18.17
2023-04-29T10:34:18.687Z,18.20
2023-04-29T10:35:18.697Z,18.18
2023-04-29T10:36:18.670Z,18.21
2023-04-29T10:37:19.180Z,18.26
2023-04-29T10:38:19.135Z,18.30
2023-04-29T10:39:18.665Z,18.35
2023-04-29T10:40:18.602Z,18.32
2023-04-29T10:41:18.646Z,18.29
2023-04-29T10:42:18.598Z,18.29
2023-04-29T10:43:18.624Z,18.29
2023-04-29T10:44:18.581Z,18.25
2023-04-29T10:45:19.484Z,18.26
2023-04-29T10:46:18.557Z,18.27
2023-04-29T10:47:21.178Z,18.25
2023-04-29T10:48:18.517Z,18.23
2023-04-29T10:49:18.550Z,18.26
2023-04-29T10:50:18.487Z,18.29
2023-04-29T10:51:18.511Z,18.30
2023-04-29T10:52:18.468Z,18.35
2023-04-29T10:53:19.775Z,18.36
2023-04-29T10:54:18.476Z,18.37
2023-04-29T10:55:18.505Z,18.39
2023-04-29T10:56:19.009Z,18.45
2023-04-29T10:57:18.426Z,18.47
2023-04-29T10:58:23.907Z,18.51
2023-04-29T10:59:19.055Z,18.55
2023-04-29T11:00:19.220Z,18.58
2023-04-29T11:01:18.444Z,18.62
2023-04-29T11:02:18.403Z,18.65
2023-04-29T11:03:18.465Z,18.57
2023-04-29T11:04:19.689Z,18.50
2023-04-29T11:05:21.157Z,18.51
2023-04-29T11:06:18.344Z,18.48
2023-04-29T11:07:18.341Z,18.48
2023-04-29T11:08:18.317Z,18.45
2023-04-29T11:09:18.301Z,18.37
2023-04-29T11:10:18.307Z,18.37
2023-04-29T11:11:20.487Z,18.37
2023-04-29T11:12:18.377Z,18.37
2023-04-29T11:13:18.267Z,18.44
2023-04-29T11:14:18.257Z,18.44
2023-04-29T11:15:18.225Z,18.47
2023-04-29T11:16:18.376Z,18.51
2023-04-29T11:17:18.250Z,18.54
2023-04-29T11:18:18.464Z,18.57
2023-04-29T11:19:18.207Z,18.60
2023-04-29T11:20:18.170Z,18.63
2023-04-29T11:21:18.825Z,18.65
2023-04-29T11:22:18.329Z,18.65
2023-04-29T11:23:18.764Z,18.69
2023-04-29T11:24:18.234Z,18.72
2023-04-29T11:25:18.301Z,18.76
2023-04-29T11:26:18.142Z,18.82
2023-04-29T11:27:18.070Z,18.87
2023-04-29T11:28:19.047Z,18.91
2023-04-29T11:29:18.096Z,18.95
2023-04-29T11:30:18.060Z,18.99
2023-04-29T11:31:18.742Z,19.04
2023-04-29T11:32:19.090Z,19.07
2023-04-29T11:33:18.982Z,19.10
2023-04-29T11:34:18.028Z,19.07
2023-04-29T11:35:18.017Z,19.02
2023-04-29T11:36:18.005Z,18.99
2023-04-29T11:37:18.013Z,18.99
2023-04-29T11:38:17.968Z,19.04
2023-04-29T11:39:17.949Z,19.04
2023-04-29T11:40:17.964Z,19.07
2023-04-29T11:41:17.916Z,19.11
2023-04-29T11:42:17.918Z,19.14
2023-04-29T11:43:17.905Z,19.16
2023-04-29T11:44:17.909Z,19.16
2023-04-29T11:45:17.886Z,19.18
2023-04-29T11:46:17.924Z,19.16
2023-04-29T11:47:17.901Z,19.18
2023-04-29T11:48:17.865Z,19.19
2023-04-29T11:49:18.531Z,19.19
2023-04-29T11:50:17.883Z,19.21
2023-04-29T11:51:17.809Z,19.26
2023-04-29T11:52:18.497Z,19.33
2023-04-29T11:53:17.784Z,19.37
2023-04-29T11:54:17.782Z,19.39
2023-04-29T11:55:17.770Z,19.46
2023-04-29T11:56:17.756Z,19.48
2023-04-29T11:57:17.741Z,19.55
2023-04-29T11:58:17.773Z,19.56
2023-04-29T11:59:25.379Z,19.59
2023-04-29T12:00:17.740Z,19.61
2023-04-29T12:01:17.744Z,19.61
2023-04-29T12:02:17.700Z,19.61
2023-04-29T12:03:17.846Z,19.55
2023-04-29T12:04:17.884Z,19.44
2023-04-29T12:05:17.945Z,19.37
2023-04-29T12:06:17.647Z,19.29
2023-04-29T12:07:17.609Z,19.22
2023-04-29T12:08:17.624Z,19.11
2023-04-29T12:09:17.581Z,19.04
2023-04-29T12:10:17.608Z,19.02
2023-04-29T12:11:17.594Z,19.04
2023-04-29T12:12:17.592Z,19.07
2023-04-29T12:13:17.549Z,19.14
2023-04-29T12:14:17.606Z,19.19
2023-04-29T12:15:17.546Z,19.19
2023-04-29T12:16:17.596Z,19.22
2023-04-29T12:17:17.505Z,19.26
2023-04-29T12:18:17.511Z,19.29
2023-04-29T12:19:18.722Z,19.31
2023-04-29T12:20:17.496Z,19.37
2023-04-29T12:21:17.467Z,19.43
2023-04-29T12:22:17.453Z,19.50
2023-04-29T12:23:17.439Z,19.61
2023-04-29T12:24:18.314Z,19.68
2023-04-29T12:25:17.396Z,19.76
2023-04-29T12:26:17.444Z,19.78
2023-04-29T12:27:17.385Z,19.78
2023-04-29T12:28:17.376Z,19.78
2023-04-29T12:29:17.374Z,19.78
2023-04-29T12:30:17.389Z,19.77
2023-04-29T12:31:17.411Z,19.74
2023-04-29T12:32:17.349Z,19.74
2023-04-29T12:33:17.336Z,19.69
2023-04-29T12:34:17.335Z,19.66
2023-04-29T12:35:17.371Z,19.63
2023-04-29T12:36:17.287Z,19.63
2023-04-29T12:37:17.281Z,19.69
2023-04-29T12:38:17.254Z,19.71
2023-04-29T12:39:17.964Z,19.66
2023-04-29T12:40:23.864Z,19.69
2023-04-29T12:41:17.367Z,19.76
2023-04-29T12:42:19.235Z,19.81
2023-04-29T12:43:17.215Z,19.92
2023-04-29T12:44:17.209Z,19.98
2023-04-29T12:45:19.180Z,20.03
2023-04-29T12:46:17.209Z,20.13
2023-04-29T12:47:17.218Z,20.20
2023-04-29T12:48:25.366Z,20.23
2023-04-29T12:49:17.131Z,20.23
2023-04-29T12:50:17.134Z,20.28
2023-04-29T12:51:18.073Z,20.31
2023-04-29T12:52:17.133Z,20.33
2023-04-29T12:53:17.089Z,20.41
2023-04-29T12:54:17.069Z,20.38
2023-04-29T12:55:17.070Z,20.28
2023-04-29T12:56:20.596Z,20.28
2023-04-29T12:57:17.027Z,20.35
2023-04-29T12:58:17.065Z,20.42
2023-04-29T12:59:17.001Z,20.51
2023-04-29T13:00:17.004Z,20.58
2023-04-29T13:01:18.546Z,20.57
2023-04-29T13:02:17.073Z,20.57
2023-04-29T13:03:18.405Z,20.55
2023-04-29T13:04:17.063Z,20.42
2023-04-29T13:05:17.191Z,20.39
2023-04-29T13:06:16.975Z,20.39
2023-04-29T13:07:16.939Z,20.41
2023-04-29T13:08:16.960Z,20.39
2023-04-29T13:09:18.870Z,20.26
2023-04-29T13:10:16.913Z,20.26
2023-04-29T13:11:17.806Z,20.24
2023-04-29T13:12:16.901Z,20.23
2023-04-29T13:13:17.491Z,20.23
2023-04-29T13:14:16.869Z,20.24
2023-04-29T13:15:16.816Z,20.31
2023-04-29T13:16:16.835Z,20.36
2023-04-29T13:17:16.791Z,20.50
2023-04-29T13:18:16.795Z,20.59
2023-04-29T13:19:30.468Z,20.66
2023-04-29T13:20:16.810Z,20.73
2023-04-29T13:21:16.746Z,20.80
2023-04-29T13:22:18.308Z,20.77
2023-04-29T13:23:16.736Z,20.77
2023-04-29T13:24:16.753Z,20.80
2023-04-29T13:25:18.623Z,20.84
2023-04-29T13:26:16.721Z,20.84
2023-04-29T13:27:16.681Z,20.89
2023-04-29T13:28:16.664Z,20.95
2023-04-29T13:29:16.687Z,20.89
2023-04-29T13:30:16.693Z,20.76
2023-04-29T13:31:16.710Z,20.76
2023-04-29T13:32:18.433Z,20.70
2023-04-29T13:33:16.678Z,20.70
2023-04-29T13:34:16.724Z,20.79
2023-04-29T13:35:16.600Z,21.03
2023-04-29T13:36:16.609Z,21.17
2023-04-29T13:37:18.729Z,21.14
2023-04-29T13:38:16.574Z,21.19
2023-04-29T13:39:16.550Z,21.24
2023-04-29T13:40:20.570Z,21.14
2023-04-29T13:41:17.302Z,20.97
2023-04-29T13:42:16.551Z,21.13
2023-04-29T13:43:26.452Z,21.31
2023-04-29T13:44:24.911Z,21.44
2023-04-29T13:45:16.931Z,21.68
2023-04-29T13:46:18.777Z,21.90
2023-04-29T13:47:24.622Z,21.96
2023-04-29T13:48:45.247Z,21.88
2023-04-29T13:49:45.413Z,22.03
2023-04-29T13:51:00.930Z,22.21
2023-04-29T13:53:35.463Z,21.72
2023-04-29T13:56:11.469Z,21.72
2023-04-29T13:58:03.021Z,21.77
2023-04-29T13:59:41.581Z,21.86
2023-04-29T14:00:44.711Z,21.90
2023-04-29T14:01:54.771Z,21.88
2023-04-29T14:02:25.162Z,21.91
2023-04-29T14:03:16.279Z,21.98
2023-04-29T14:04:16.400Z,22.02
2023-04-29T14:05:16.371Z,22.03
2023-04-29T14:06:16.266Z,22.00
2023-04-29T14:07:16.240Z,22.02
2023-04-29T14:08:16.233Z,22.07
2023-04-29T14:09:16.178Z,22.05
2023-04-29T14:10:16.218Z,22.05
2023-04-29T14:11:16.862Z,22.09
2023-04-29T14:12:16.186Z,22.15
2023-04-29T14:13:16.165Z,22.22
2023-04-29T14:14:16.169Z,22.40
2023-04-29T14:15:16.106Z,22.43
2023-04-29T14:16:16.174Z,22.43
2023-04-29T14:17:16.102Z,22.46
2023-04-29T14:18:16.107Z,22.42
2023-04-29T14:19:16.817Z,22.37
2023-04-29T14:20:16.114Z,22.36
2023-04-29T14:21:16.071Z,22.22
2023-04-29T14:22:16.637Z,22.10
2023-04-29T14:23:16.038Z,22.00
2023-04-29T14:24:18.808Z,21.83
2023-04-29T14:25:17.107Z,21.53
2023-04-29T14:26:27.704Z,21.58
2023-04-29T14:27:15.989Z,21.69
2023-04-29T14:28:15.992Z,21.83
2023-04-29T14:29:15.953Z,21.99
2023-04-29T14:30:15.982Z,22.05
2023-04-29T14:31:17.669Z,21.94
2023-04-29T14:32:15.972Z,21.92
2023-04-29T14:33:15.930Z,21.99
2023-04-29T14:34:16.016Z,21.90
2023-04-29T14:35:15.885Z,21.86
2023-04-29T14:36:15.933Z,21.82
2023-04-29T14:37:18.159Z,21.79
2023-04-29T14:38:15.890Z,21.83
2023-04-29T14:39:15.854Z,21.92
2023-04-29T14:40:15.848Z,22.03
2023-04-29T14:41:15.845Z,22.12
2023-04-29T14:42:15.859Z,22.20
2023-04-29T14:43:16.112Z,22.25
2023-04-29T14:44:15.811Z,22.27
2023-04-29T14:45:15.794Z,22.35
2023-04-29T14:46:15.877Z,22.37
2023-04-29T14:47:16.611Z,22.43
2023-04-29T14:48:15.809Z,22.49